logo
Rechercher aéroport 
image banner adimage banner adimage banner ad
image banner ad

FASE - Sabi Sabi

Situé à Skukuza, South Africa

ICAO - FASE, IATA - GSS

Données fournies par Airmate  

Information générale

Coordonnées: S24°56'29" E31°26'41"
Élévation : 1250 feet MSL.
 
Voir autres Aéroports à Mpumalanga

Données opérationnelles

Special qualification required
Heure actuelle UTC:
Heure actuelle locale:
METAR: FAKN 242100Z AUTO 34001KT //// // ////// 15/14 Q1032
Voir NOTAMs / SUP AIP / TFR affectant cet aéroport [VIEW]
Fréquences de communication: [VIEW]

Pistes:

Identifiant RWYQFULongueur (ft)Largeur (ft)SurfaceLDA (ft)
17492159UNK
35492159UNK

Coordonnées de l'aéroport

Adresse: Skukuza South Africa

Vue satellite de FASE